Time,TemperatureF,DewpointF,PressureIn,WindDirection,WindDirectionDegrees,WindSpeedMPH,WindSpeedGustMPH,Humidity,HourlyPrecipIn,Conditions,Clouds,dailyrainin,SoftwareType,DateUTC
2013-03-30 09:00:00,43.8,30.8,30.12,NNW,331,1.0,1.0,60,0.00,,,0.00,Wunderground v.1.15,2013-03-30 13:00:00,
2013-03-30 09:10:00,44.8,30.9,30.12,North,351,1.0,1.0,58,0.00,,,0.00,Wunderground v.1.15,2013-03-30 13:10:00,
2013-03-30 09:15:00,45.5,31.1,30.12,North,355,1.0,1.0,57,0.00,,,0.00,Wunderground v.1.15,2013-03-30 13:15:00,
2013-03-30 09:25:00,47.3,32.4,30.12,NNW,333,0.0,3.0,56,0.00,,,0.00,Wunderground v.1.15,2013-03-30 13:25:00,
2013-03-30 09:35:00,47.6,32.2,30.12,NW,325,2.0,2.0,55,0.00,,,0.00,Wunderground v.1.15,2013-03-30 13:35:00,
2013-03-30 09:45:00,48.9,31.1,30.12,WNW,293,1.0,3.0,50,0.00,,,0.00,Wunderground v.1.15,2013-03-30 13:45:00,
2013-03-30 09:55:00,49.4,30.5,30.12,NNW,342,2.0,2.0,48,0.00,,,0.00,Wunderground v.1.15,2013-03-30 13:55:00,
2013-03-30 10:05:00,49.4,30.0,30.12,NNE,29,2.0,3.0,47,0.00,,,0.00,Wunderground v.1.15,2013-03-30 14:05:00,
2013-03-30 10:15:00,50.2,30.2,30.12,West,273,3.0,3.0,46,0.00,,,0.00,Wunderground v.1.15,2013-03-30 14:15:00,
2013-03-30 10:25:00,51.3,30.7,30.12,WSW,242,2.0,3.0,45,0.00,,,0.00,Wunderground v.1.15,2013-03-30 14:25:00,
2013-03-30 10:35:00,51.4,30.2,30.12,South,188,2.0,2.0,44,0.00,,,0.00,Wunderground v.1.15,2013-03-30 14:35:00,
2013-03-30 10:45:00,51.4,27.9,30.12,NW,318,3.0,3.0,40,0.00,,,0.00,Wunderground v.1.15,2013-03-30 14:45:00,
2013-03-30 10:55:00,52.6,27.0,30.11,NE,46,2.0,3.0,37,0.00,,,0.00,Wunderground v.1.15,2013-03-30 14:55:00,
2013-03-30 11:05:00,53.5,30.4,30.11,NNW,332,1.0,3.0,41,0.00,,,0.00,Wunderground v.1.15,2013-03-30 15:05:00,
2013-03-30 11:15:00,53.5,29.1,30.11,NW,325,3.0,4.0,39,0.00,,,0.00,Wunderground v.1.15,2013-03-30 15:15:00,
2013-03-30 11:25:00,53.5,25.8,30.11,West,267,3.0,4.0,34,0.00,,,0.00,Wunderground v.1.15,2013-03-30 15:25:00,
2013-03-30 11:35:00,54.2,25.7,30.10,NE,35,3.0,4.0,33,0.00,,,0.00,Wunderground v.1.15,2013-03-30 15:35:00,
2013-03-30 11:45:00,55.3,27.4,30.10,WNW,286,3.0,4.0,34,0.00,,,0.00,Wunderground v.1.15,2013-03-30 15:45:00,
2013-03-30 11:55:00,54.5,25.2,30.09,WNW,296,4.0,4.0,32,0.00,,,0.00,Wunderground v.1.15,2013-03-30 15:55:00,
2013-03-30 12:05:00,52.8,25.2,30.10,NE,34,4.0,5.0,34,0.00,,,0.00,Wunderground v.1.15,2013-03-30 16:05:00,
2013-03-30 12:15:00,54.4,25.9,30.10,NW,308,3.0,5.0,33,0.00,,,0.00,Wunderground v.1.15,2013-03-30 16:15:00,
2013-03-30 12:25:00,55.0,23.3,30.09,North,360,3.0,3.0,29,0.00,,,0.00,Wunderground v.1.15,2013-03-30 16:25:00,
2013-03-30 12:35:00,56.7,23.9,30.09,NNE,13,3.0,6.0,28,0.00,,,0.00,Wunderground v.1.15,2013-03-30 16:35:00,
2013-03-30 12:45:00,55.9,24.1,30.09,NNW,337,4.0,4.0,29,0.00,,,0.00,Wunderground v.1.15,2013-03-30 16:45:00,
2013-03-30 12:55:00,55.1,25.0,30.08,West,271,3.0,4.0,31,0.00,,,0.00,Wunderground v.1.15,2013-03-30 16:55:00,
2013-03-30 13:10:00,57.0,25.0,30.08,South,178,3.0,6.0,29,0.00,,,0.00,Wunderground v.1.15,2013-03-30 17:10:00,
2013-03-30 13:15:00,58.7,26.5,30.08,NW,315,4.0,6.0,29,0.00,,,0.00,Wunderground v.1.15,2013-03-30 17:15:00,
2013-03-30 13:25:00,57.5,23.7,30.07,WNW,296,4.0,5.0,27,0.00,,,0.00,Wunderground v.1.15,2013-03-30 17:25:00,
2013-03-30 13:35:00,58.1,23.3,30.06,NNW,343,4.0,8.0,26,0.00,,,0.00,Wunderground v.1.15,2013-03-30 17:35:00,
2013-03-30 13:45:00,55.9,20.5,30.06,North,360,4.0,8.0,25,0.00,,,0.00,Wunderground v.1.15,2013-03-30 17:45:00,
2013-03-30 13:55:00,55.9,22.4,30.05,NW,305,3.0,5.0,27,0.00,,,0.00,Wunderground v.1.15,2013-03-30 17:55:00,
2013-03-30 14:05:00,57.3,22.7,30.05,WNW,284,3.0,4.0,26,0.00,,,0.00,Wunderground v.1.15,2013-03-30 18:05:00,
2013-03-30 14:15:00,58.4,21.7,30.05,NE,56,2.0,5.0,24,0.00,,,0.00,Wunderground v.1.15,2013-03-30 18:15:00,
2013-03-30 14:25:00,59.0,22.2,30.04,WSW,238,4.0,4.0,24,0.00,,,0.00,Wunderground v.1.15,2013-03-30 18:25:00,
2013-03-30 14:35:00,58.6,21.9,30.03,West,275,3.0,4.0,24,0.00,,,0.00,Wunderground v.1.15,2013-03-30 18:35:00,
2013-03-30 14:45:00,59.6,21.7,30.03,NNW,341,4.0,4.0,23,0.00,,,0.00,Wunderground v.1.15,2013-03-30 18:45:00,
2013-03-30 14:55:00,59.3,23.4,30.03,North,5,4.0,4.0,25,0.00,,,0.00,Wunderground v.1.15,2013-03-30 18:55:00,
2013-03-30 15:10:00,60.2,21.2,30.03,West,281,3.0,3.0,22,0.00,,,0.00,Wunderground v.1.15,2013-03-30 19:10:00,
2013-03-30 15:15:00,58.4,18.6,30.03,NW,313,4.0,4.0,21,0.00,,,0.00,Wunderground v.1.15,2013-03-30 19:15:00,
2013-03-30 15:25:00,58.0,20.4,30.03,NW,319,3.0,3.0,23,0.00,,,0.00,Wunderground v.1.15,2013-03-30 19:25:00,
2013-03-30 15:35:00,58.1,20.4,30.02,NNE,31,3.0,3.0,23,0.00,,,0.00,Wunderground v.1.15,2013-03-30 19:35:00,
2013-03-30 15:45:00,57.2,21.6,30.02,North,10,3.0,7.0,25,0.00,,,0.00,Wunderground v.1.15,2013-03-30 19:45:00,
2013-03-30 15:55:00,57.3,20.8,30.02,NW,325,2.0,4.0,24,0.00,,,0.00,Wunderground v.1.15,2013-03-30 19:55:00,
2013-03-30 16:06:00,58.3,20.6,30.02,NNW,333,3.0,3.0,23,0.00,,,0.00,Wunderground v.1.15,2013-03-30 20:06:00,
2013-03-30 16:15:00,56.7,21.2,30.02,NNW,340,3.0,3.0,25,0.00,,,0.00,Wunderground v.1.15,2013-03-30 20:15:00,
2013-03-30 16:25:00,58.0,22.3,30.01,NNW,337,2.0,3.0,25,0.00,,,0.00,Wunderground v.1.15,2013-03-30 20:25:00,
2013-03-30 16:40:00,57.5,21.9,30.02,NW,310,3.0,4.0,25,0.00,,,0.00,Wunderground v.1.15,2013-03-30 20:40:00,
2013-03-30 16:45:00,58.3,21.6,30.02,North,355,3.0,4.0,24,0.00,,,0.00,Wunderground v.1.15,2013-03-30 20:45:00,
2013-03-30 16:55:00,58.1,21.4,30.01,NNE,22,3.0,6.0,24,0.00,,,0.00,Wunderground v.1.15,2013-03-30 20:55:00,
2013-03-30 17:05:00,57.8,22.2,30.01,SSW,212,3.0,4.0,25,0.00,,,0.00,Wunderground v.1.15,2013-03-30 21:05:00,
2013-03-30 17:15:00,57.2,20.7,30.01,NNW,347,2.0,3.0,24,0.00,,,0.00,Wunderground v.1.15,2013-03-30 21:15:00,
2013-03-30 17:25:00,57.0,22.4,30.01,NNW,327,3.0,4.0,26,0.00,,,0.00,Wunderground v.1.15,2013-03-30 21:25:00,
2013-03-30 17:35:00,56.9,20.4,30.01,WNW,296,3.0,3.0,24,0.00,,,0.00,Wunderground v.1.15,2013-03-30 21:35:00,
2013-03-30 17:45:00,56.5,20.1,30.01,North,355,2.0,2.0,24,0.00,,,0.00,Wunderground v.1.15,2013-03-30 21:45:00,
2013-03-30 17:50:00,56.5,19.1,30.02,NNW,346,2.0,2.0,23,0.00,,,0.00,Wunderground v.1.15,2013-03-30 21:50:00,
2013-03-30 17:55:00,56.3,19.9,30.02,NNW,341,2.0,2.0,24,0.00,,,0.00,Wunderground v.1.15,2013-03-30 21:55:00,
2013-03-30 18:06:00,56.6,19.2,30.02,NNW,336,2.0,2.0,23,0.00,,,0.00,Wunderground v.1.15,2013-03-30 22:06:00,
2013-03-30 18:15:00,56.3,18.9,30.02,WNW,293,2.0,3.0,23,0.00,,,0.00,Wunderground v.1.15,2013-03-30 22:15:00,
2013-03-30 18:25:00,55.9,18.6,30.02,NW,304,2.0,3.0,23,0.00,,,0.00,Wunderground v.1.15,2013-03-30 22:25:00,
2013-03-30 18:35:00,55.3,19.1,30.02,NW,317,2.0,2.0,24,0.00,,,0.00,Wunderground v.1.15,2013-03-30 22:35:00,
2013-03-30 18:45:00,54.7,18.6,30.02,NW,308,2.0,4.0,24,0.00,,,0.00,Wunderground v.1.15,2013-03-30 22:45:00,
2013-03-30 18:55:00,54.5,19.3,30.02,NW,319,2.0,3.0,25,0.00,,,0.00,Wunderground v.1.15,2013-03-30 22:55:00,
2013-03-30 19:05:00,54.2,20.9,30.03,NNW,331,2.0,2.0,27,0.00,,,0.00,Wunderground v.1.15,2013-03-30 23:05:00,
2013-03-30 19:15:00,53.2,21.7,30.03,NNW,340,1.0,2.0,29,0.00,,,0.00,Wunderground v.1.15,2013-03-30 23:15:00,
2013-03-30 19:25:00,51.9,21.4,30.03,NNW,340,0.0,0.0,30,0.00,,,0.00,Wunderground v.1.15,2013-03-30 23:25:00,
2013-03-30 19:35:00,50.5,23.1,30.03,NNW,340,0.0,1.0,34,0.00,,,0.00,Wunderground v.1.15,2013-03-30 23:35:00,
2013-03-30 19:45:00,49.5,22.3,30.03,NNW,340,0.0,0.0,34,0.00,,,0.00,Wunderground v.1.15,2013-03-30 23:45:00,
2013-03-30 19:55:00,48.9,22.4,30.04,NNW,340,0.0,0.0,35,0.00,,,0.00,Wunderground v.1.15,2013-03-30 23:55:00,
2013-03-30 20:05:00,48.2,23.1,30.04,NNW,340,0.0,0.0,37,0.00,,,0.00,Wunderground v.1.15,2013-03-31 00:05:00,
2013-03-30 20:15:00,47.3,22.9,30.04,NNW,340,0.0,0.0,38,0.00,,,0.00,Wunderground v.1.15,2013-03-31 00:15:00,
2013-03-30 20:25:00,46.7,25.4,30.05,NNW,340,0.0,0.0,43,0.00,,,0.00,Wunderground v.1.15,2013-03-31 00:25:00,
2013-03-30 20:35:00,46.0,24.2,30.05,NNW,340,0.0,0.0,42,0.00,,,0.00,Wunderground v.1.15,2013-03-31 00:35:00,
2013-03-30 20:45:00,45.2,24.0,30.05,NNW,340,0.0,0.0,43,0.00,,,0.00,Wunderground v.1.15,2013-03-31 00:45:00,
2013-03-30 20:55:00,44.6,24.0,30.06,NNW,340,0.0,0.0,44,0.00,,,0.00,Wunderground v.1.15,2013-03-31 00:55:00,
2013-03-30 21:05:00,44.2,25.2,30.06,NNW,340,0.0,0.0,47,0.00,,,0.00,Wunderground v.1.15,2013-03-31 01:05:00,
2013-03-30 21:15:00,43.6,25.2,30.06,NNW,340,0.0,0.0,48,0.00,,,0.00,Wunderground v.1.15,2013-03-31 01:15:00,
2013-03-30 21:25:00,43.1,25.2,30.06,NNW,340,0.0,0.0,49,0.00,,,0.00,Wunderground v.1.15,2013-03-31 01:25:00,
2013-03-30 21:35:00,42.6,26.2,30.06,NNW,340,0.0,0.0,52,0.00,,,0.00,Wunderground v.1.15,2013-03-31 01:35:00,
2013-03-30 21:45:00,42.2,25.8,30.06,NNW,340,0.0,0.0,52,0.00,,,0.00,Wunderground v.1.15,2013-03-31 01:45:00,
2013-03-30 21:55:00,41.6,25.7,30.06,NNW,340,0.0,0.0,53,0.00,,,0.00,Wunderground v.1.15,2013-03-31 01:55:00,
2013-03-30 22:10:00,41.2,27.1,30.06,NNW,340,0.0,0.0,57,0.00,,,0.00,Wunderground v.1.15,2013-03-31 02:10:00,
2013-03-30 22:15:00,40.9,26.8,30.06,NNW,340,0.0,0.0,57,0.00,,,0.00,Wunderground v.1.15,2013-03-31 02:15:00,
2013-03-30 22:25:00,40.3,26.7,30.07,NNW,340,0.0,0.0,58,0.00,,,0.00,Wunderground v.1.15,2013-03-31 02:25:00,
2013-03-30 22:35:00,40.1,26.9,30.07,NNW,340,0.0,0.0,59,0.00,,,0.00,Wunderground v.1.15,2013-03-31 02:35:00,
2013-03-30 22:45:00,39.6,27.2,30.07,NNW,340,0.0,0.0,61,0.00,,,0.00,Wunderground v.1.15,2013-03-31 02:45:00,
2013-03-30 22:55:00,39.5,27.5,30.07,NNW,340,0.0,0.0,62,0.00,,,0.00,Wunderground v.1.15,2013-03-31 02:55:00,
2013-03-30 23:05:00,38.8,28.0,30.07,NNW,340,0.0,0.0,65,0.00,,,0.00,Wunderground v.1.15,2013-03-31 03:05:00,
2013-03-30 23:15:00,38.8,28.0,30.07,NNW,340,0.0,0.0,65,0.00,,,0.00,Wunderground v.1.15,2013-03-31 03:15:00,
2013-03-30 23:25:00,38.5,28.5,30.08,NNW,340,0.0,0.0,67,0.00,,,0.00,Wunderground v.1.15,2013-03-31 03:25:00,
2013-03-30 23:35:00,38.3,29.0,30.08,NNW,340,0.0,0.0,69,0.00,,,0.00,Wunderground v.1.15,2013-03-31 03:35:00,
2013-03-30 23:45:00,37.9,28.6,30.08,NNW,340,0.0,0.0,69,0.00,,,0.00,Wunderground v.1.15,2013-03-31 03:45:00,
2013-03-30 23:55:00,38.0,29.4,30.08,NNW,340,0.0,0.0,71,0.00,,,0.00,Wunderground v.1.15,2013-03-31 03:55:00,